OOCL New York — VRJS2 — position and weather

sailwx.info

Track history (hours):
 
Tides and Currents Weather Stations Pressure Air Temp Water Temp Dewpoint Dewpoint Depression Visibility Wind Speed Wind Dir Waves Ship Positions

OOCL New York

Last reported at 2017-Dec-08 23:24 UTC. Time now 2017-Dec-12 06:34 UTC.
Position N 34°58' E 140°15'.

Length 277 m; draft 12.9 m.

Type: Ship. MMSI: 477274700.

Date/timePositionNaut miles runAvg speedWind from/ knotsBaromVisibWave heightAir tempDewpointWater temp
2017-Dec-08 23:24N 34°58' E 140°15'921.6
2017-Dec-08 23:00N 34°52' E 140°07'1321.9
2017-Dec-08 22:26N 34°46' E 139°53'1020.8
2017-Dec-08 21:56N 34°43' E 139°41'921.1
2017-Dec-08 21:30N 34°40' E 139°31'1321.4
2017-Dec-08 20:55N 34°36' E 139°17'921.3
2017-Dec-08 20:30N 34°32' E 139°08'1121.1
2017-Dec-08 20:00N 34°26' E 138°57'1120.9
2017-Dec-08 19:30N 34°21' E 138°45'1120.6
2017-Dec-08 19:00N 34°17' E 138°34'1020.2
2017-Dec-08 18:30N 34°12' E 138°23'1120.1
2017-Dec-08 17:58N 34°07' E 138°11'  
2017-Dec-03 16:08N 22°20' E 114°07'  
2017-Dec-01 04:57N 22°31' E 119°52'512.4
2017-Dec-01 04:31N 22°31' E 119°58'612.8
2017-Dec-01 04:00N 22°32' E 120°05'612.6
2017-Dec-01 03:30N 22°33' E 120°12'612.1
2017-Dec-01 03:00N 22°33' E 120°18'1 2.6
2017-Dec-01 02:30N 22°34' E 120°19'0 0.0
2017-Dec-01 02:00N 22°34' E 120°19'0 0.0
2017-Dec-01 01:29N 22°34' E 120°19'0 0.0
2017-Dec-01 00:59N 22°34' E 120°19'0 0.0
2017-Dec-01 00:30N 22°34' E 120°19'0 0.0
2017-Dec-01 00:01N 22°34' E 120°19'0 0.1
2017-Nov-30 23:30N 22°34' E 120°19'0 0.1
2017-Nov-30 23:00N 22°34' E 120°19'0 0.0
2017-Nov-30 22:30N 22°34' E 120°19'0 0.0
2017-Nov-30 22:00N 22°34' E 120°19'0 0.0
2017-Nov-30 21:28N 22°34' E 120°19'0 0.0
2017-Nov-30 20:59N 22°34' E 120°19'0 0.0
2017-Nov-30 20:31N 22°34' E 120°19'0 0.0
2017-Nov-30 20:00N 22°34' E 120°19'0 0.0
2017-Nov-30 19:30N 22°34' E 120°19'0 0.0
2017-Nov-30 19:01N 22°34' E 120°19'0 0.0
2017-Nov-30 18:30N 22°34' E 120°19'0 0.1
2017-Nov-30 18:00N 22°34' E 120°19'0 0.1
2017-Nov-30 17:29N 22°34' E 120°19'0 0.0
2017-Nov-30 16:59N 22°34' E 120°19'0 0.0
2017-Nov-30 16:30N 22°34' E 120°19'0 0.0
2017-Nov-30 16:00N 22°34' E 120°19'0 0.1
2017-Nov-30 14:37N 22°34' E 120°19'0 0.8
2017-Nov-30 14:30N 22°34' E 120°19'0 0.1
2017-Nov-30 14:00N 22°34' E 120°19'0 0.0
2017-Nov-30 13:30N 22°34' E 120°19'0 0.1
2017-Nov-30 13:00N 22°34' E 120°19'1 2.2
2017-Nov-30 12:30N 22°33' E 120°19'4 7.9
2017-Nov-30 12:00N 22°32' E 120°15'3 6.1
2017-Nov-30 11:31N 22°33' E 120°12'816.7
2017-Nov-30 11:00N 22°40' E 120°07'918.1
2017-Nov-30 10:30N 22°48' E 120°02'917.8
2017-Nov-30 10:00N 22°55' E 119°56'916.8
2017-Nov-30 09:30N 23°03' E 119°54'917.6
2017-Nov-30 09:00N 23°12' E 119°54'817.0
2017-Nov-30 08:29N 23°21' E 119°54'1216.9
2017-Nov-30 07:48N 23°33' E 119°54'414.1
2017-Nov-30 07:31N 23°37' E 119°54'713.5
2017-Nov-30 07:00N 23°43' E 119°55'10613.6
2017-Nov-29 23:13N 25°13' E 120°56'413.2
2017-Nov-29 22:55N 25°17' E 120°58'1013.3
2017-Nov-29 22:11N 25°24' E 121°05'213.5
2017-Nov-29 22:00N 25°26' E 121°07'  
Track history (hours):
 
Tides and Currents Weather Stations Pressure Air Temp Water Temp Dewpoint Dewpoint Depression Visibility Wind Speed Wind Dir Waves Ship Positions

OOCL New York

Last reported at 2017-Dec-08 23:24 UTC. Time now 2017-Dec-12 06:34 UTC.
Position N 34°58' E 140°15'.

Length 277 m; draft 12.9 m.

Type: Ship. MMSI: 477274700.

Date/timePositionNaut miles runAvg speedWind from/ knotsBaromVisibWave heightAir tempDewpointWater temp
2017-Dec-08 23:24N 34°58' E 140°15'921.6
2017-Dec-08 23:00N 34°52' E 140°07'1321.9
2017-Dec-08 22:26N 34°46' E 139°53'1020.8
2017-Dec-08 21:56N 34°43' E 139°41'921.1
2017-Dec-08 21:30N 34°40' E 139°31'1321.4
2017-Dec-08 20:55N 34°36' E 139°17'921.3
2017-Dec-08 20:30N 34°32' E 139°08'1121.1
2017-Dec-08 20:00N 34°26' E 138°57'1120.9
2017-Dec-08 19:30N 34°21' E 138°45'1120.6
2017-Dec-08 19:00N 34°17' E 138°34'1020.2
2017-Dec-08 18:30N 34°12' E 138°23'1120.1
2017-Dec-08 17:58N 34°07' E 138°11'  
2017-Dec-03 16:08N 22°20' E 114°07'  
2017-Dec-01 04:57N 22°31' E 119°52'512.4
2017-Dec-01 04:31N 22°31' E 119°58'612.8
2017-Dec-01 04:00N 22°32' E 120°05'612.6
2017-Dec-01 03:30N 22°33' E 120°12'612.1
2017-Dec-01 03:00N 22°33' E 120°18'1 2.6
2017-Dec-01 02:30N 22°34' E 120°19'0 0.0
2017-Dec-01 02:00N 22°34' E 120°19'0 0.0
2017-Dec-01 01:29N 22°34' E 120°19'0 0.0
2017-Dec-01 00:59N 22°34' E 120°19'0 0.0
2017-Dec-01 00:30N 22°34' E 120°19'0 0.0
2017-Dec-01 00:01N 22°34' E 120°19'0 0.1
2017-Nov-30 23:30N 22°34' E 120°19'0 0.1
2017-Nov-30 23:00N 22°34' E 120°19'0 0.0
2017-Nov-30 22:30N 22°34' E 120°19'0 0.0
2017-Nov-30 22:00N 22°34' E 120°19'0 0.0
2017-Nov-30 21:28N 22°34' E 120°19'0 0.0
2017-Nov-30 20:59N 22°34' E 120°19'0 0.0
2017-Nov-30 20:31N 22°34' E 120°19'0 0.0
2017-Nov-30 20:00N 22°34' E 120°19'0 0.0
2017-Nov-30 19:30N 22°34' E 120°19'0 0.0
2017-Nov-30 19:01N 22°34' E 120°19'0 0.0
2017-Nov-30 18:30N 22°34' E 120°19'0 0.1
2017-Nov-30 18:00N 22°34' E 120°19'0 0.1
2017-Nov-30 17:29N 22°34' E 120°19'0 0.0
2017-Nov-30 16:59N 22°34' E 120°19'0 0.0
2017-Nov-30 16:30N 22°34' E 120°19'0 0.0
2017-Nov-30 16:00N 22°34' E 120°19'0 0.1
2017-Nov-30 14:37N 22°34' E 120°19'0 0.8
2017-Nov-30 14:30N 22°34' E 120°19'0 0.1
2017-Nov-30 14:00N 22°34' E 120°19'0 0.0
2017-Nov-30 13:30N 22°34' E 120°19'0 0.1
2017-Nov-30 13:00N 22°34' E 120°19'1 2.2
2017-Nov-30 12:30N 22°33' E 120°19'4 7.9
2017-Nov-30 12:00N 22°32' E 120°15'3 6.1
2017-Nov-30 11:31N 22°33' E 120°12'816.7
2017-Nov-30 11:00N 22°40' E 120°07'918.1
2017-Nov-30 10:30N 22°48' E 120°02'917.8
2017-Nov-30 10:00N 22°55' E 119°56'916.8
2017-Nov-30 09:30N 23°03' E 119°54'917.6
2017-Nov-30 09:00N 23°12' E 119°54'817.0
2017-Nov-30 08:29N 23°21' E 119°54'1216.9
2017-Nov-30 07:48N 23°33' E 119°54'414.1
2017-Nov-30 07:31N 23°37' E 119°54'713.5
2017-Nov-30 07:00N 23°43' E 119°55'10613.6
2017-Nov-29 23:13N 25°13' E 120°56'413.2
2017-Nov-29 22:55N 25°17' E 120°58'1013.3
2017-Nov-29 22:11N 25°24' E 121°05'213.5
2017-Nov-29 22:00N 25°26' E 121°07'  

Dump ship's entire track history